Time;durP1;ratioP1;P1;durP2;ratioP2;P2;SDS_P1;SDS_P2;PMS_P1;PMS_P2;Temp;Humidity;BMP_temperature;BMP_pressure;BME280_temperature;BME280_humidity;BME280_pressure;Samples;Min_cycle;Max_cycle;Signal;HPM_P1;HPM_P2
2022/08/07 00:02:00;;;;;;;3.07;1.80;;;;;;;19.97;44.30;99339.84;6954257;28;20591;-77
2022/08/07 00:05:21;;;;;;;2.10;1.80;;;;;;;19.64;45.47;99326.22;6949226;28;20234;-78
2022/08/07 00:08:44;;;;;;;1.80;1.70;;;;;;;19.72;44.74;99325.81;6948652;28;20294;-78
2022/08/07 00:12:06;;;;;;;2.70;1.90;;;;;;;19.69;45.03;99318.06;6947342;28;20695;-78
2022/08/07 00:15:29;;;;;;;3.27;2.00;;;;;;;19.72;45.08;99309.38;6946892;28;20261;-78
2022/08/07 00:18:51;;;;;;;3.47;2.00;;;;;;;19.60;45.02;99321.50;6946013;28;20210;-78
2022/08/07 00:22:12;;;;;;;2.90;2.33;;;;;;;19.43;45.43;99323.41;6946985;28;20226;-78
2022/08/07 00:25:36;;;;;;;2.13;1.77;;;;;;;19.32;45.76;99296.97;6947447;28;20759;-78
2022/08/07 00:28:57;;;;;;;2.23;2.10;;;;;;;19.39;45.69;99317.63;6946315;28;20246;-78
2022/08/07 00:32:19;;;;;;;2.10;1.90;;;;;;;19.63;44.68;99313.63;6951412;28;20265;-77
2022/08/07 00:35:40;;;;;;;1.90;1.80;;;;;;;19.74;44.75;99320.91;6947366;28;20241;-78
2022/08/07 00:39:02;;;;;;;2.23;2.03;;;;;;;19.45;45.21;99326.75;6946702;28;20616;-78
2022/08/07 00:42:25;;;;;;;2.10;1.90;;;;;;;18.70;46.76;99331.66;6946933;28;20230;-78
2022/08/07 00:45:48;;;;;;;2.17;2.00;;;;;;;18.28;48.24;99332.97;6962129;28;20238;-79
2022/08/07 00:49:10;;;;;;;2.00;1.90;;;;;;;17.67;49.51;99323.69;6966933;28;20581;-79
2022/08/07 00:52:32;;;;;;;2.07;1.90;;;;;;;18.61;47.23;99308.56;6967778;28;20237;-79
2022/08/07 00:55:53;;;;;;;2.27;2.00;;;;;;;18.85;46.63;99328.38;6966349;28;20207;-79
2022/08/07 00:59:17;;;;;;;2.40;2.20;;;;;;;17.92;49.12;99338.72;6965673;28;20207;-79
2022/08/07 01:02:39;;;;;;;1.70;1.60;;;;;;;18.37;48.37;99334.28;6962137;28;20249;-78
2022/08/07 01:06:04;;;;;;;1.97;1.77;;;;;;;18.59;46.95;99305.25;6964245;28;20238;-79
2022/08/07 01:09:27;;;;;;;2.20;2.10;;;;;;;18.61;47.52;99324.94;6968027;28;20207;-79
2022/08/07 01:12:50;;;;;;;2.33;2.13;;;;;;;18.87;47.13;99331.72;6971254;28;20250;-79
2022/08/07 01:16:14;;;;;;;2.07;1.97;;;;;;;19.18;46.12;99328.44;6971532;28;20266;-79
2022/08/07 01:19:37;;;;;;;2.00;1.80;;;;;;;19.22;45.77;99322.25;6966182;28;20215;-79
2022/08/07 01:23:00;;;;;;;2.10;1.90;;;;;;;19.04;46.20;99308.78;6957406;28;20231;-79
2022/08/07 01:26:23;;;;;;;2.90;1.97;;;;;;;18.70;47.05;99293.41;6959140;28;20238;-79
2022/08/07 01:29:45;;;;;;;2.73;2.00;;;;;;;18.81;46.65;99319.03;6939103;28;20215;-78
2022/08/07 01:33:09;;;;;;;2.23;1.90;;;;;;;18.25;48.49;99310.78;6940897;28;20411;-79
2022/08/07 01:36:31;;;;;;;3.60;1.80;;;;;;;18.57;47.87;99310.09;6938119;28;20680;-79
2022/08/07 01:39:57;;;;;;;1.70;1.60;;;;;;;18.77;47.76;99320.59;6927257;28;20207;-78
2022/08/07 01:43:19;;;;;;;1.97;1.87;;;;;;;18.71;47.63;99307.91;6926762;28;20236;-79
2022/08/07 01:46:41;;;;;;;6.37;2.43;;;;;;;18.81;46.85;99310.84;6926366;28;20255;-79
2022/08/07 01:50:03;;;;;;;2.17;2.00;;;;;;;18.77;47.46;99313.22;6927981;28;20207;-79
2022/08/07 01:53:26;;;;;;;2.10;2.00;;;;;;;18.82;46.62;99312.50;6941048;28;20316;-79
2022/08/07 01:56:53;;;;;;;4.73;2.00;;;;;;;18.55;46.99;99281.38;6940903;28;20395;-78
2022/08/07 02:00:16;;;;;;;3.10;1.97;;;;;;;18.30;47.89;99313.63;6941382;28;20200;-79
2022/08/07 02:03:42;;;;;;;1.93;1.83;;;;;;;18.55;47.46;99304.06;6940790;28;20259;-78
2022/08/07 02:07:05;;;;;;;2.30;2.10;;;;;;;18.69;47.18;99304.59;6935333;28;20272;-79
2022/08/07 02:10:27;;;;;;;2.23;1.93;;;;;;;18.52;47.43;99309.19;6930787;28;20211;-78
2022/08/07 02:13:51;;;;;;;2.00;1.80;;;;;;;18.20;48.36;99297.88;6935292;28;20235;-79
2022/08/07 02:17:15;;;;;;;2.37;1.93;;;;;;;18.74;46.91;99291.84;6939577;28;20291;-79
2022/08/07 02:20:37;;;;;;;2.07;1.97;;;;;;;18.73;47.09;99286.63;6933652;28;20212;-79
2022/08/07 02:24:03;;;;;;;2.17;2.00;;;;;;;18.42;47.61;99284.41;6930719;28;20243;-78
2022/08/07 02:27:26;;;;;;;2.00;1.90;;;;;;;18.36;48.12;99297.13;6931167;28;20224;-78
2022/08/07 02:30:50;;;;;;;1.90;1.80;;;;;;;18.25;48.30;99281.59;6932930;28;20291;-79
2022/08/07 02:34:12;;;;;;;2.07;1.90;;;;;;;18.10;48.56;99297.66;6925057;28;20305;-78
2022/08/07 02:37:35;;;;;;;1.87;1.77;;;;;;;18.43;48.01;99296.97;6930327;28;20227;-78
2022/08/07 02:40:58;;;;;;;3.57;2.07;;;;;;;18.08;48.92;99283.41;6936656;28;20239;-79
2022/08/07 02:44:22;;;;;;;3.20;1.97;;;;;;;18.26;48.07;99253.22;6940461;28;20238;-79
2022/08/07 02:47:45;;;;;;;2.40;2.20;;;;;;;17.99;49.07;99284.84;6927823;28;20714;-79
2022/08/07 02:51:10;;;;;;;2.37;2.17;;;;;;;17.78;49.43;99277.31;6940078;28;20262;-78
2022/08/07 02:54:33;;;;;;;3.77;2.00;;;;;;;18.57;47.73;99290.97;6934089;28;20232;-78
2022/08/07 02:57:58;;;;;;;2.30;2.10;;;;;;;18.46;48.12;99291.03;6927433;28;20294;-79
2022/08/07 03:01:22;;;;;;;2.63;2.00;;;;;;;18.64;47.47;99286.19;6933416;28;20200;-80
2022/08/07 03:04:45;;;;;;;2.10;1.90;;;;;;;18.55;47.60;99278.63;6933069;28;20567;-80
2022/08/07 03:08:07;;;;;;;2.30;2.07;;;;;;;18.45;47.76;99284.75;6926901;28;20224;-80
2022/08/07 03:11:29;;;;;;;3.77;2.07;;;;;;;18.48;47.24;99273.34;6929272;28;20235;-80
2022/08/07 03:14:51;;;;;;;2.10;2.00;;;;;;;18.13;48.33;99297.19;6931041;28;20226;-80
2022/08/07 03:18:14;;;;;;;2.17;2.00;;;;;;;17.70;49.15;99295.94;6935374;28;20192;-80
2022/08/07 03:21:37;;;;;;;2.50;2.30;;;;;;;16.90;51.92;99264.00;6931320;28;20681;-79
2022/08/07 03:25:00;;;;;;;3.27;2.20;;;;;;;17.57;50.49;99291.56;6936472;28;20726;-79
2022/08/07 03:28:21;;;;;;;2.40;2.20;;;;;;;17.64;50.31;99292.25;6949910;28;20717;-80
2022/08/07 03:31:44;;;;;;;2.27;2.00;;;;;;;17.68;50.51;99292.63;6947731;28;20677;-80
2022/08/07 03:35:09;;;;;;;2.23;2.03;;;;;;;17.44;50.85;99277.34;6953837;28;20211;-80
2022/08/07 03:38:33;;;;;;;2.13;2.03;;;;;;;17.92;49.06;99270.53;6955718;28;20207;-80
2022/08/07 03:41:55;;;;;;;2.17;2.07;;;;;;;17.65;49.90;99290.38;6962758;28;20199;-79
2022/08/07 03:45:16;;;;;;;3.97;2.10;;;;;;;17.84;49.47;99286.44;6946965;28;20263;-80
2022/08/07 03:48:38;;;;;;;2.57;2.20;;;;;;;18.09;48.96;99271.44;6928560;28;20228;-80
2022/08/07 03:52:01;;;;;;;2.30;2.17;;;;;;;17.78;48.99;99265.56;6932306;28;20646;-80
2022/08/07 03:55:24;;;;;;;6.37;2.70;;;;;;;17.29;50.37;99287.88;6938641;28;20306;-79
2022/08/07 03:58:49;;;;;;;3.07;2.20;;;;;;;17.31;51.11;99275.66;6934964;28;20203;-80
2022/08/07 04:02:11;;;;;;;2.87;2.57;;;;;;;17.05;51.13;99265.19;6936894;28;20313;-80
2022/08/07 04:05:34;;;;;;;2.90;2.23;;;;;;;17.76;49.58;99260.34;6953302;28;20207;-79
2022/08/07 04:08:59;;;;;;;2.50;2.30;;;;;;;17.41;50.40;99286.84;6960231;28;20226;-80
2022/08/07 04:12:23;;;;;;;2.07;1.97;;;;;;;17.53;51.12;99286.81;6960832;28;20287;-80
2022/08/07 04:15:45;;;;;;;2.80;2.60;;;;;;;17.38;51.04;99275.56;6964500;28;20230;-79
2022/08/07 04:19:11;;;;;;;2.47;2.30;;;;;;;17.75;49.76;99268.78;6961627;28;20590;-79
2022/08/07 04:22:33;;;;;;;2.27;2.10;;;;;;;18.06;49.12;99288.31;6960449;28;20308;-79
2022/08/07 04:25:55;;;;;;;2.53;2.23;;;;;;;17.90;49.22;99275.41;6954616;28;20207;-79
2022/08/07 04:29:18;;;;;;;2.53;2.10;;;;;;;18.00;48.98;99293.88;6953202;28;20233;-79
2022/08/07 04:32:40;;;;;;;4.23;2.10;;;;;;;18.21;48.97;99315.09;6954938;28;20234;-79
2022/08/07 04:36:02;;;;;;;2.37;2.17;;;;;;;18.22;49.01;99316.75;6955430;28;20199;-79
2022/08/07 04:39:25;;;;;;;2.30;2.20;;;;;;;18.25;48.59;99316.25;6958681;28;20211;-79
2022/08/07 04:42:46;;;;;;;2.17;2.07;;;;;;;18.14;49.22;99309.75;6957356;28;20608;-79
2022/08/07 04:46:13;;;;;;;2.50;2.30;;;;;;;18.25;49.51;99311.63;6953693;28;20313;-79
2022/08/07 04:49:42;;;;;;;4.10;2.23;;;;;;;18.30;48.85;99308.16;6956360;28;20207;-80
2022/08/07 04:53:07;;;;;;;2.30;2.10;;;;;;;18.21;49.09;99320.53;6934917;28;20231;-80
2022/08/07 04:56:35;;;;;;;2.83;2.57;;;;;;;18.17;49.89;99327.53;6935293;28;20284;-79
2022/08/07 05:00:00;;;;;;;2.70;2.47;;;;;;;18.00;49.81;99289.25;6927906;28;20211;-79
2022/08/07 05:03:27;;;;;;;2.60;2.40;;;;;;;18.55;48.74;99319.59;6935160;28;20257;-79
2022/08/07 05:06:55;;;;;;;3.10;2.40;;;;;;;18.67;48.83;99325.84;6932105;28;20228;-79
2022/08/07 05:10:19;;;;;;;3.20;2.40;;;;;;;18.73;48.62;99317.53;6931375;28;20217;-79
2022/08/07 05:13:47;;;;;;;3.40;2.30;;;;;;;18.53;48.37;99294.44;6929201;28;20223;-80
2022/08/07 05:17:12;;;;;;;4.20;2.40;;;;;;;18.69;49.09;99282.75;6951246;28;20194;-79
2022/08/07 05:20:40;;;;;;;4.07;2.60;;;;;;;19.36;47.57;99320.84;6964492;28;20195;-80
2022/08/07 05:24:03;;;;;;;2.50;2.30;;;;;;;19.61;47.16;99321.25;6957094;28;20227;-79
2022/08/07 05:27:26;;;;;;;7.63;3.10;;;;;;;20.04;45.97;99326.00;6956331;28;20234;-79
2022/08/07 05:30:48;;;;;;;2.93;2.70;;;;;;;20.18;45.59;99330.03;6956426;28;20195;-79
2022/08/07 05:34:12;;;;;;;5.03;2.80;;;;;;;20.31;45.08;99315.94;6961997;28;20234;-80
2022/08/07 05:37:35;;;;;;;2.87;2.60;;;;;;;21.16;44.01;99330.63;6954728;28;20253;-80
2022/08/07 05:40:57;;;;;;;4.10;2.63;;;;;;;21.78;42.90;99341.59;6957940;28;20689;-79
2022/08/07 05:44:20;;;;;;;2.53;2.20;;;;;;;22.30;41.84;99330.66;6976981;28;20299;-79
2022/08/07 05:47:42;;;;;;;2.70;2.50;;;;;;;22.47;41.41;99323.88;6972594;28;20224;-79
2022/08/07 05:51:04;;;;;;;4.60;2.90;;;;;;;22.63;42.18;99331.09;6962488;28;20696;-79
2022/08/07 05:54:27;;;;;;;3.33;3.03;;;;;;;22.61;43.00;99332.44;6956488;28;20233;-80
2022/08/07 05:57:50;;;;;;;3.70;3.40;;;;;;;23.19;42.23;99335.63;6951016;28;20273;-79
2022/08/07 06:01:13;;;;;;;3.60;3.30;;;;;;;22.38;43.67;99341.97;6951641;28;20288;-79
2022/08/07 06:04:36;;;;;;;4.33;3.33;;;;;;;23.12;43.17;99332.28;6951520;28;20262;-80
2022/08/07 06:07:59;;;;;;;4.23;3.53;;;;;;;22.28;44.51;99338.31;6951571;28;20314;-79
2022/08/07 06:11:22;;;;;;;3.80;3.50;;;;;;;22.58;44.28;99344.81;6951010;28;20203;-79
2022/08/07 06:14:43;;;;;;;5.63;3.20;;;;;;;22.47;44.45;99331.28;6948253;28;20227;-80
2022/08/07 06:18:06;;;;;;;4.13;3.60;;;;;;;22.48;45.12;99327.47;6950970;28;20206;-80
2022/08/07 06:21:28;;;;;;;4.07;3.23;;;;;;;23.70;42.48;99334.53;6948601;28;20207;-80
2022/08/07 06:24:50;;;;;;;4.13;3.73;;;;;;;23.00;44.09;99330.88;6934222;28;20233;-80
2022/08/07 06:28:12;;;;;;;3.40;3.10;;;;;;;24.06;42.36;99335.34;6950104;28;20238;-79
2022/08/07 06:31:34;;;;;;;5.00;3.60;;;;;;;22.88;44.75;99330.31;6951491;28;20261;-79
2022/08/07 06:34:56;;;;;;;4.07;3.33;;;;;;;23.09;44.13;99332.84;6950573;28;20229;-81
2022/08/07 06:38:17;;;;;;;3.60;3.00;;;;;;;23.31;44.59;99327.13;6958694;28;20200;-82
2022/08/07 06:41:42;;;;;;;4.23;3.10;;;;;;;23.72;42.57;99326.81;6950972;28;20292;-78
2022/08/07 06:45:07;;;;;;;3.40;3.10;;;;;;;23.63;43.87;99324.91;6944690;28;20226;-79
2022/08/07 06:48:29;;;;;;;3.80;3.17;;;;;;;24.00;42.81;99330.91;6950364;28;20311;-81
2022/08/07 06:51:51;;;;;;;3.33;3.03;;;;;;;24.20;42.37;99326.19;6955233;28;20218;-79
2022/08/07 06:55:16;;;;;;;3.60;3.30;;;;;;;24.10;42.14;99319.88;6951177;28;20207;-79
2022/08/07 06:58:38;;;;;;;3.40;2.97;;;;;;;24.41;41.39;99316.75;6951568;28;20291;-79
2022/08/07 07:02:01;;;;;;;3.57;3.27;;;;;;;23.72;42.56;99337.03;6950546;28;20686;-78
2022/08/07 07:05:23;;;;;;;3.57;3.27;;;;;;;23.51;42.94;99321.59;6951539;28;20212;-79
2022/08/07 07:08:44;;;;;;;3.67;3.07;;;;;;;24.41;41.13;99310.41;6949420;28;20255;-79
2022/08/07 07:12:22;;;;;;;4.77;2.87;;;;;;;24.44;40.76;99309.84;6952791;28;20231;-78
2022/08/07 07:15:46;;;;;;;2.63;2.43;;;;;;;25.21;39.66;99305.28;6950765;28;20668;-79
2022/08/07 07:19:12;;;;;;;2.93;2.50;;;;;;;26.30;37.06;99308.13;6950374;28;20220;-79
2022/08/07 07:22:33;;;;;;;2.63;2.40;;;;;;;26.83;35.58;99319.94;6950387;28;20257;-80
2022/08/07 07:25:58;;;;;;;3.17;2.23;;;;;;;27.77;33.60;99316.81;6952015;28;20234;-80
2022/08/07 07:29:23;;;;;;;2.10;2.00;;;;;;;26.47;34.78;99330.59;6951401;28;20262;-80
2022/08/07 07:32:45;;;;;;;2.50;2.30;;;;;;;27.56;33.00;99323.81;6953360;28;20229;-80
2022/08/07 07:36:09;;;;;;;5.33;2.53;;;;;;;26.54;34.51;99308.97;6953040;28;20567;-80
2022/08/07 07:39:31;;;;;;;2.40;2.20;;;;;;;27.10;33.75;99296.00;6948430;28;20256;-80
2022/08/07 07:42:54;;;;;;;2.90;2.27;;;;;;;26.66;34.87;99314.09;6949239;28;20223;-80
2022/08/07 07:46:16;;;;;;;2.27;1.97;;;;;;;26.60;34.80;99313.31;6948341;28;20238;-80
2022/08/07 07:49:39;;;;;;;2.40;2.20;;;;;;;27.30;32.91;99289.34;6950585;28;20230;-80
2022/08/07 07:53:02;;;;;;;3.03;2.13;;;;;;;26.17;34.12;99291.41;6949298;28;20590;-79
2022/08/07 07:56:25;;;;;;;2.67;1.80;;;;;;;27.32;33.09;99298.16;6949106;28;20385;-80
2022/08/07 07:59:48;;;;;;;1.83;1.73;;;;;;;28.61;29.44;99286.56;6947426;28;20209;-80
2022/08/07 08:03:11;;;;;;;2.10;2.00;;;;;;;27.41;30.85;99283.31;6948232;28;20717;-80
2022/08/07 08:06:36;;;;;;;1.80;1.70;;;;;;;26.98;32.27;99292.03;6948649;28;20732;-82
2022/08/07 08:10:00;;;;;;;3.87;1.70;;;;;;;27.76;30.36;99298.50;6949327;28;20211;-79
2022/08/07 08:13:24;;;;;;;1.73;1.50;;;;;;;25.66;33.64;99282.81;6948130;28;20270;-79
2022/08/07 08:16:46;;;;;;;1.60;1.50;;;;;;;27.83;31.53;99277.63;6948857;28;20678;-80
2022/08/07 08:20:09;;;;;;;3.10;1.67;;;;;;;27.93;30.27;99282.13;6941702;28;20242;-78
2022/08/07 08:27:13;;;;;;;1.67;1.57;;;;;;;26.83;31.43;99270.13;6947459;28;20215;-80
2022/08/07 08:30:35;;;;;;;1.10;1.10;;;;;;;27.61;30.03;99274.66;6937109;28;20205;-78
2022/08/07 08:33:58;;;;;;;1.77;1.40;;;;;;;27.95;29.74;99266.03;6942388;28;20224;-79
2022/08/07 08:37:20;;;;;;;2.47;1.60;;;;;;;28.51;28.41;99270.16;6945072;28;20204;-80
2022/08/07 08:40:48;;;;;;;1.47;1.37;;;;;;;28.92;27.24;99267.28;6943630;28;20237;-80
2022/08/07 08:44:24;;;;;;;1.77;1.30;;;;;;;29.26;25.16;99264.84;6934899;28;20310;-80
2022/08/07 08:48:01;;;;;;;1.27;1.10;;;;;;;28.49;26.60;99269.63;6947047;28;20207;-79
2022/08/07 08:51:27;;;;;;;1.40;1.30;;;;;;;28.11;27.26;99261.81;6942871;28;20221;-80
2022/08/07 08:54:56;;;;;;;1.77;1.30;;;;;;;28.96;25.96;99262.81;6947758;28;20243;-80
2022/08/07 08:58:26;;;;;;;2.20;1.50;;;;;;;28.27;25.97;99264.00;6939572;28;20214;-80
2022/08/07 09:01:56;;;;;;;1.77;1.40;;;;;;;27.01;27.35;99264.56;6920641;28;20195;-81
2022/08/07 09:05:23;;;;;;;1.53;1.43;;;;;;;28.69;26.05;99251.72;6944369;28;20223;-80
2022/08/07 09:08:54;;;;;;;1.23;1.13;;;;;;;28.92;24.74;99273.69;6947136;28;20244;-81
2022/08/07 09:12:24;;;;;;;1.47;1.20;;;;;;;27.85;26.90;99264.25;6947800;28;20710;-79
2022/08/07 09:15:51;;;;;;;1.20;1.10;;;;;;;30.03;23.68;99236.41;6947683;28;20315;-80
2022/08/07 09:19:35;;;;;;;1.40;1.30;;;;;;;30.16;23.04;99266.09;6947066;28;20283;-80
2022/08/07 09:23:03;;;;;;;1.20;1.10;;;;;;;29.51;22.66;99253.06;6946677;28;20271;-80
2022/08/07 09:26:29;;;;;;;2.03;1.10;;;;;;;29.50;23.11;99265.34;6942434;28;20198;-80
2022/08/07 09:29:56;;;;;;;1.47;1.20;;;;;;;28.00;24.07;99272.28;6945721;28;20213;-80
2022/08/07 09:33:32;;;;;;;2.40;1.30;;;;;;;29.02;23.84;99265.13;6936230;28;20252;-80
2022/08/07 09:37:01;;;;;;;0.70;0.70;;;;;;;30.78;21.33;99259.22;6927381;28;20672;-81
2022/08/07 09:40:26;;;;;;;0.53;0.53;;;;;;;28.59;22.85;99224.19;6945539;28;20220;-80
2022/08/07 09:43:56;;;;;;;1.63;0.80;;;;;;;28.07;23.44;99252.50;6947339;28;20309;-79
2022/08/07 09:47:27;;;;;;;1.20;0.90;;;;;;;29.48;21.77;99265.66;6946082;28;20205;-80
2022/08/07 09:50:56;;;;;;;1.23;0.80;;;;;;;30.13;21.23;99261.16;6950418;28;20563;-80
2022/08/07 09:54:22;;;;;;;1.50;1.17;;;;;;;27.52;23.82;99264.56;6950090;28;20244;-79
2022/08/07 09:58:29;;;;;;;1.50;1.00;;;;;;;28.13;23.55;99254.03;6954551;28;20201;-78
2022/08/07 10:02:02;;;;;;;0.97;0.97;;;;;;;29.97;22.28;99232.13;6980437;28;20203;-82
2022/08/07 10:05:44;;;;;;;0.83;0.83;;;;;;;30.89;21.52;99229.09;6955272;28;20200;-79
2022/08/07 10:09:27;;;;;;;1.07;1.00;;;;;;;29.88;21.82;99233.19;6951515;28;20254;-79
2022/08/07 10:13:13;;;;;;;0.97;0.87;;;;;;;30.91;21.57;99221.22;6950140;28;20270;-79
2022/08/07 10:16:46;;;;;;;0.97;0.87;;;;;;;31.19;21.19;99234.53;6951481;28;20271;-78
2022/08/07 10:20:16;;;;;;;1.77;0.90;;;;;;;30.08;22.18;99229.84;6951654;28;20257;-79
2022/08/07 10:23:46;;;;;;;3.10;1.03;;;;;;;29.54;22.80;99210.81;6951921;28;20246;-80
2022/08/07 10:27:26;;;;;;;0.90;0.87;;;;;;;30.84;21.12;99193.88;6951357;28;20250;-79
2022/08/07 10:30:57;;;;;;;1.00;1.00;;;;;;;30.04;21.67;99193.53;6951581;28;20208;-80
2022/08/07 10:34:30;;;;;;;1.13;0.80;;;;;;;29.63;22.43;99201.38;6951552;28;20310;-79
2022/08/07 10:38:02;;;;;;;0.87;0.73;;;;;;;30.78;21.29;99191.59;6950620;28;20260;-79
2022/08/07 10:41:29;;;;;;;0.83;0.80;;;;;;;31.51;20.01;99194.97;6956044;28;20197;-80
2022/08/07 10:44:58;;;;;;;1.67;0.70;;;;;;;31.20;19.92;99190.78;6951571;28;20266;-79
2022/08/07 10:48:31;;;;;;;0.80;0.80;;;;;;;31.03;20.91;99183.22;6950685;28;20274;-79
2022/08/07 10:51:57;;;;;;;1.03;0.90;;;;;;;30.35;21.21;99177.59;6950705;28;20219;-79
2022/08/07 10:55:21;;;;;;;2.87;1.20;;;;;;;31.60;20.67;99167.06;6951086;28;20191;-79
2022/08/07 10:58:52;;;;;;;1.10;1.00;;;;;;;31.70;19.95;99152.72;6950983;28;20255;-79
2022/08/07 11:02:21;;;;;;;0.80;0.80;;;;;;;31.72;20.14;99156.84;6949502;28;20252;-79
2022/08/07 11:05:52;;;;;;;2.10;0.80;;;;;;;31.34;21.10;99164.34;6950665;28;20270;-79
2022/08/07 11:09:18;;;;;;;0.80;0.70;;;;;;;32.44;18.99;99165.81;6949814;28;20217;-79
2022/08/07 11:12:52;;;;;;;1.23;0.93;;;;;;;30.87;20.40;99168.16;6948593;28;20229;-79
2022/08/07 11:16:18;;;;;;;1.63;0.90;;;;;;;30.72;20.39;99159.47;6950527;28;20205;-79
2022/08/07 11:19:51;;;;;;;1.37;0.93;;;;;;;30.56;21.34;99149.94;6949434;28;20211;-80
2022/08/07 11:23:19;;;;;;;1.37;1.07;;;;;;;31.41;20.59;99138.72;6950434;28;20231;-79
2022/08/07 11:26:44;;;;;;;1.67;0.80;;;;;;;32.58;19.21;99134.84;6951051;28;20191;-79
2022/08/07 11:30:08;;;;;;;1.60;1.00;;;;;;;31.84;19.21;99137.44;6948782;28;20673;-79
2022/08/07 11:33:35;;;;;;;0.70;0.70;;;;;;;32.89;18.38;99121.31;6949700;28;20727;-79
2022/08/07 11:37:04;;;;;;;1.10;1.00;;;;;;;30.62;20.07;99129.97;6949918;28;20183;-79
2022/08/07 11:40:36;;;;;;;0.97;0.83;;;;;;;32.79;18.35;99124.53;6949228;28;20692;-79
2022/08/07 11:44:05;;;;;;;2.23;1.10;;;;;;;32.43;18.45;99113.94;6949478;28;20257;-79
2022/08/07 11:47:42;;;;;;;2.53;1.00;;;;;;;33.01;18.42;99112.97;6949661;28;20220;-79
2022/08/07 11:51:17;;;;;;;2.33;0.70;;;;;;;33.37;17.71;99108.31;6948971;28;20228;-79
2022/08/07 11:54:57;;;;;;;1.20;1.00;;;;;;;32.50;18.18;99125.41;6948861;28;20824;-79
2022/08/07 11:58:25;;;;;;;2.10;0.90;;;;;;;33.43;17.65;99109.72;6948174;28;20203;-80
2022/08/07 12:01:59;;;;;;;2.00;0.80;;;;;;;32.10;18.44;99114.97;6949239;28;20193;-79
2022/08/07 12:05:26;;;;;;;1.13;0.97;;;;;;;32.60;18.62;99121.38;6949381;28;20210;-80
2022/08/07 12:08:52;;;;;;;1.17;1.00;;;;;;;30.53;20.22;99120.78;6948471;28;20211;-78
2022/08/07 12:12:19;;;;;;;2.47;1.10;;;;;;;32.44;18.56;99109.19;6947379;28;20240;-80
2022/08/07 12:15:45;;;;;;;1.97;1.37;;;;;;;30.36;20.43;99103.28;6949154;28;20245;-80
2022/08/07 12:19:12;;;;;;;1.43;1.10;;;;;;;30.23;20.71;99109.78;6948841;28;20203;-81
2022/08/07 12:22:41;;;;;;;2.00;0.80;;;;;;;31.26;20.04;99103.84;6949708;28;20344;-81
2022/08/07 12:26:05;;;;;;;1.23;0.90;;;;;;;31.80;19.76;99089.09;6947193;28;20215;-80
2022/08/07 12:29:33;;;;;;;1.70;1.10;;;;;;;30.67;20.08;99103.97;6951121;28;20250;-80
2022/08/07 12:33:01;;;;;;;1.47;1.17;;;;;;;29.60;21.44;99079.69;6952702;28;20269;-81
2022/08/07 12:36:23;;;;;;;0.97;0.90;;;;;;;31.37;20.26;99085.63;6953101;28;20192;-82
2022/08/07 12:39:47;;;;;;;1.00;0.87;;;;;;;32.08;19.36;99070.66;6952639;28;20226;-84
2022/08/07 12:43:11;;;;;;;0.83;0.83;;;;;;;32.30;19.26;99070.38;6950174;28;20252;-81
2022/08/07 12:46:47;;;;;;;1.00;1.00;;;;;;;31.67;19.00;99084.50;6949899;28;20215;-80
2022/08/07 12:50:13;;;;;;;0.90;0.90;;;;;;;32.92;19.20;99067.53;6948973;28;20617;-80
2022/08/07 12:53:39;;;;;;;1.30;0.90;;;;;;;31.75;19.70;99077.28;6949091;28;20255;-80
2022/08/07 12:57:02;;;;;;;1.53;1.20;;;;;;;30.05;21.43;99075.56;6949897;28;20203;-80
2022/08/07 13:00:29;;;;;;;1.13;1.10;;;;;;;32.15;20.09;99064.56;6949059;28;20234;-81
2022/08/07 13:04:18;;;;;;;2.00;1.10;;;;;;;32.78;18.66;99058.66;6950949;28;20271;-81
2022/08/07 13:07:51;;;;;;;1.10;1.00;;;;;;;32.31;18.55;99055.25;6950094;28;20198;-81
2022/08/07 13:11:30;;;;;;;2.60;1.13;;;;;;;31.86;18.95;99042.28;6949963;28;20226;-81
2022/08/07 13:15:01;;;;;;;2.83;1.47;;;;;;;32.59;18.72;99058.28;6949933;28;20231;-81
2022/08/07 13:18:28;;;;;;;1.67;0.93;;;;;;;32.73;18.12;99048.47;6949475;28;20194;-80
2022/08/07 13:21:56;;;;;;;1.20;1.10;;;;;;;34.02;17.31;99032.56;6950689;28;20878;-82
2022/08/07 13:25:24;;;;;;;0.90;0.90;;;;;;;33.92;16.93;99047.06;6954413;28;20201;-82
2022/08/07 13:28:50;;;;;;;1.30;1.17;;;;;;;33.86;17.02;99037.28;6954666;28;20207;-80
2022/08/07 13:32:16;;;;;;;1.17;1.07;;;;;;;33.38;17.76;99031.66;6955492;28;20238;-82
2022/08/07 13:35:39;;;;;;;1.30;1.20;;;;;;;33.00;18.15;99031.13;6955945;28;20226;-81
2022/08/07 13:39:05;;;;;;;1.60;0.93;;;;;;;32.67;18.10;99027.50;6956248;28;20203;-82
2022/08/07 13:42:27;;;;;;;1.53;1.30;;;;;;;31.66;18.94;99023.50;6944232;28;20235;-82
2022/08/07 13:45:55;;;;;;;1.30;1.20;;;;;;;31.95;18.47;99029.09;6952443;28;20577;-81
2022/08/07 13:49:17;;;;;;;1.63;1.53;;;;;;;32.20;18.83;99011.34;6954316;28;20226;-81
2022/08/07 13:52:41;;;;;;;1.23;1.00;;;;;;;32.05;18.35;99023.94;6954687;28;20242;-82
2022/08/07 13:56:05;;;;;;;1.30;1.10;;;;;;;31.88;18.96;99014.84;6955285;28;20209;-82
2022/08/07 13:59:30;;;;;;;1.30;1.20;;;;;;;32.48;18.59;98992.88;6941404;28;20217;-82
2022/08/07 14:02:52;;;;;;;2.67;1.13;;;;;;;32.28;18.03;99004.88;6952848;28;20237;-82
2022/08/07 14:06:15;;;;;;;1.50;1.40;;;;;;;31.72;18.83;98997.91;6928919;28;20200;-84
2022/08/07 14:09:39;;;;;;;2.27;1.27;;;;;;;31.81;18.77;98997.84;6931895;28;20238;-81
2022/08/07 14:13:02;;;;;;;4.07;1.50;;;;;;;32.32;18.58;99000.25;6969628;28;20218;-82
2022/08/07 14:16:26;;;;;;;1.43;1.20;;;;;;;31.85;18.66;98996.81;6976734;28;20205;-82
2022/08/07 14:19:51;;;;;;;2.20;0.97;;;;;;;32.34;18.59;98992.34;6929708;28;20231;-81
2022/08/07 14:23:16;;;;;;;1.07;1.00;;;;;;;32.72;18.23;98996.56;6953023;28;20230;-81
2022/08/07 14:26:41;;;;;;;1.20;1.10;;;;;;;31.65;19.28;98975.28;6953193;28;20205;-81
2022/08/07 14:30:07;;;;;;;2.10;1.03;;;;;;;32.21;18.74;98971.09;6941492;28;20733;-81
2022/08/07 14:33:31;;;;;;;1.57;1.10;;;;;;;32.62;18.36;98987.81;6981280;28;20230;-84
2022/08/07 14:36:53;;;;;;;1.87;1.27;;;;;;;32.86;18.10;98983.13;6968546;28;20197;-81
2022/08/07 14:40:17;;;;;;;1.50;1.40;;;;;;;32.78;18.21;98958.88;6949566;28;20210;-81
2022/08/07 14:43:40;;;;;;;1.77;1.10;;;;;;;32.85;18.33;98975.88;6950279;28;20226;-80
2022/08/07 14:47:04;;;;;;;1.20;1.10;;;;;;;33.43;18.13;98950.34;6937539;28;20256;-81
2022/08/07 14:50:27;;;;;;;1.60;1.50;;;;;;;32.46;19.23;98978.44;6937010;28;20235;-81
2022/08/07 14:53:51;;;;;;;1.90;1.80;;;;;;;33.06;18.36;98973.00;6926889;28;20692;-81
2022/08/07 14:57:14;;;;;;;2.07;1.30;;;;;;;32.66;18.27;98969.22;6927168;28;20258;-80
2022/08/07 15:00:37;;;;;;;1.43;1.33;;;;;;;31.86;19.50;98934.31;6931131;28;20268;-81
2022/08/07 15:04:02;;;;;;;1.67;1.30;;;;;;;31.72;19.80;98969.22;6926498;28;20231;-81
2022/08/07 15:07:23;;;;;;;2.73;1.30;;;;;;;31.66;19.10;98974.13;6926073;28;20211;-80
2022/08/07 15:10:46;;;;;;;1.23;1.20;;;;;;;32.75;18.47;98959.56;6926192;28;20265;-81
2022/08/07 15:14:09;;;;;;;2.27;1.27;;;;;;;33.01;18.45;98974.06;6926728;28;20240;-81
2022/08/07 15:17:34;;;;;;;1.37;1.20;;;;;;;31.98;18.88;98958.66;6926418;28;20203;-81
2022/08/07 15:20:58;;;;;;;2.37;1.60;;;;;;;31.68;19.40;98957.06;6945843;28;20216;-81
2022/08/07 15:24:24;;;;;;;1.47;1.20;;;;;;;32.09;19.62;98941.19;6954150;28;20330;-82
2022/08/07 15:27:48;;;;;;;1.40;1.30;;;;;;;32.34;18.86;98961.66;6953230;28;20302;-80
2022/08/07 15:31:12;;;;;;;1.40;1.30;;;;;;;31.47;19.68;98965.41;6953912;28;20371;-82
2022/08/07 15:34:35;;;;;;;1.20;1.10;;;;;;;31.98;18.99;98953.91;6951886;28;20592;-80
2022/08/07 15:38:00;;;;;;;1.30;1.20;;;;;;;32.44;18.79;98950.84;6925121;28;20251;-80
2022/08/07 15:41:23;;;;;;;1.30;1.20;;;;;;;32.54;18.71;98932.88;6936429;28;20206;-81
2022/08/07 15:44:47;;;;;;;1.53;1.00;;;;;;;31.57;19.81;98931.56;6953171;28;20235;-81
2022/08/07 15:48:17;;;;;;;2.63;1.47;;;;;;;31.19;19.67;98927.22;6951591;28;20207;-81
2022/08/07 15:51:40;;;;;;;2.33;1.30;;;;;;;32.37;19.03;98945.03;6951045;28;20278;-80
2022/08/07 15:55:07;;;;;;;2.60;1.17;;;;;;;30.98;20.04;98938.28;6953041;28;20210;-80
2022/08/07 15:58:35;;;;;;;1.33;1.10;;;;;;;31.86;19.27;98937.13;6954325;28;20212;-81
2022/08/07 16:01:58;;;;;;;1.73;1.50;;;;;;;32.20;18.54;98927.63;6951715;28;20208;-80
2022/08/07 16:05:22;;;;;;;1.20;1.10;;;;;;;32.67;19.09;98938.13;6952078;28;20245;-83
2022/08/07 16:08:45;;;;;;;1.63;1.33;;;;;;;31.81;19.32;98942.88;6952309;28;20235;-81
2022/08/07 16:12:14;;;;;;;1.77;1.33;;;;;;;32.63;18.44;98923.25;6952954;28;20237;-82